Time;durP1;ratioP1;P1;durP2;ratioP2;P2;SDS_P1;SDS_P2;PMS_P1;PMS_P2;Temp;Humidity;BMP_temperature;BMP_pressure;BME280_temperature;BME280_humidity;BME280_pressure;Samples;Min_cycle;Max_cycle;Signal;HPM_P1;HPM_P2
2022/02/02 00:04:08;;;;;;;38.22;8.05;;;6.40;99.90;;;;;;5021985;28;20509;-67
2022/02/02 00:06:41;;;;;;;36.63;5.88;;;6.40;99.90;;;;;;5022700;28;20353;-68
2022/02/02 00:09:12;;;;;;;33.70;6.55;;;6.40;99.90;;;;;;5017701;28;20068;-68
2022/02/02 00:17:12;;;;;;;28.75;5.35;;;6.50;99.90;;;;;;5018282;28;20056;-68
2022/02/02 00:19:41;;;;;;;30.95;4.93;;;6.50;99.90;;;;;;5016967;28;20053;-68
2022/02/02 00:22:15;;;;;;;23.20;4.72;;;6.40;99.90;;;;;;5020374;28;20469;-68
2022/02/02 00:27:15;;;;;;;21.60;2.85;;;6.20;99.90;;;;;;5019066;28;20056;-68
2022/02/02 00:29:47;;;;;;;17.63;3.30;;;6.30;99.90;;;;;;5023245;28;20037;-68
2022/02/02 00:32:34;;;;;;;18.15;2.35;;;6.30;99.90;;;;;;5020828;28;20037;-68
2022/02/02 00:34:59;;;;;;;13.63;2.55;;;6.30;99.90;;;;;;5017951;28;20045;-68
2022/02/02 00:37:25;;;;;;;12.73;1.92;;;6.30;99.90;;;;;;5021533;28;20053;-68
2022/02/02 00:39:51;;;;;;;12.60;2.13;;;6.30;99.90;;;;;;5019683;28;20421;-68
2022/02/02 00:42:17;;;;;;;12.90;3.10;;;6.20;99.90;;;;;;5022563;28;20052;-68
2022/02/02 00:44:48;;;;;;;13.55;2.30;;;6.20;99.90;;;;;;5021909;28;20398;-68
2022/02/02 00:47:20;;;;;;;12.40;2.55;;;6.20;99.90;;;;;;5013866;28;20068;-68
2022/02/02 00:49:48;;;;;;;16.30;2.88;;;6.10;99.90;;;;;;5006356;28;20046;-68
2022/02/02 00:52:13;;;;;;;26.27;3.63;;;6.10;99.90;;;;;;5017859;28;20041;-68
2022/02/02 00:54:39;;;;;;;18.70;3.55;;;6.10;99.90;;;;;;5021032;28;20041;-68
2022/02/02 00:57:05;;;;;;;19.63;3.50;;;6.20;99.90;;;;;;5019281;28;20049;-69
2022/02/02 00:59:31;;;;;;;29.88;4.93;;;6.20;99.90;;;;;;5019011;28;20140;-68
2022/02/02 01:01:56;;;;;;;26.00;4.57;;;6.20;99.90;;;;;;5020440;28;20064;-68
2022/02/02 01:04:22;;;;;;;20.25;3.17;;;6.30;99.90;;;;;;5019122;28;20095;-68
2022/02/02 01:07:13;;;;;;;20.08;3.53;;;6.30;99.90;;;;;;5020785;28;20103;-68
2022/02/02 01:10:07;;;;;;;20.08;3.28;;;6.30;99.90;;;;;;5020505;28;20107;-68
2022/02/02 01:16:00;;;;;;;26.25;4.20;;;6.40;99.90;;;;;;5020169;28;20037;-68
2022/02/02 01:18:16;;;;;;;16.65;2.95;;;6.40;99.90;;;;;;5015896;28;20037;-68
2022/02/02 01:28:31;;;;;;;33.05;4.63;;;6.40;99.90;;;;;;5018663;28;20095;-68
2022/02/02 01:30:57;;;;;;;23.35;4.35;;;6.40;99.90;;;;;;5017641;28;20042;-68
2022/02/02 01:33:23;;;;;;;13.60;4.10;;;6.50;99.90;;;;;;5018324;28;20036;-68
2022/02/02 01:35:50;;;;;;;19.23;3.10;;;6.50;99.90;;;;;;5018911;28;20041;-68
2022/02/02 01:38:15;;;;;;;15.38;2.60;;;6.40;99.90;;;;;;5019109;28;20038;-68
2022/02/02 01:40:47;;;;;;;19.60;3.05;;;6.40;99.90;;;;;;5021769;28;20041;-68
2022/02/02 01:43:18;;;;;;;17.02;3.13;;;6.40;99.90;;;;;;5019249;28;20034;-67
2022/02/02 01:45:51;;;;;;;16.95;3.70;;;6.40;99.90;;;;;;5017757;28;20038;-69
2022/02/02 01:54:02;;;;;;;23.73;3.50;;;6.60;99.90;;;;;;5018821;28;20056;-68
2022/02/02 01:56:19;;;;;;;20.83;3.50;;;6.50;99.90;;;;;;5015983;28;20069;-68
2022/02/02 01:59:00;;;;;;;17.70;4.03;;;6.50;99.90;;;;;;5016800;28;20053;-68
2022/02/02 02:01:28;;;;;;;19.42;3.10;;;6.60;99.90;;;;;;5020116;28;20049;-68
2022/02/02 02:03:54;;;;;;;18.85;3.55;;;6.60;99.90;;;;;;5023170;28;20111;-68
2022/02/02 02:06:19;;;;;;;21.92;4.43;;;6.60;99.90;;;;;;5025531;28;20061;-68
2022/02/02 02:08:45;;;;;;;19.77;3.55;;;6.60;99.90;;;;;;5024890;28;20056;-68
2022/02/02 02:11:20;;;;;;;21.55;3.17;;;6.60;99.90;;;;;;5007420;28;20033;-68
2022/02/02 02:16:30;;;;;;;14.55;3.25;;;6.70;99.90;;;;;;5024672;28;20048;-68
2022/02/02 02:18:58;;;;;;;16.48;3.35;;;6.70;99.90;;;;;;5024061;28;20045;-69
2022/02/02 02:21:24;;;;;;;21.33;3.85;;;6.60;99.90;;;;;;5019886;28;20057;-68
2022/02/02 02:23:50;;;;;;;20.13;3.17;;;6.60;99.90;;;;;;5023563;28;20107;-68
2022/02/02 02:26:23;;;;;;;31.65;4.47;;;6.50;99.90;;;;;;5021238;28;20037;-68
2022/02/02 02:55:56;;;;;;;24.15;4.00;;;5.90;99.90;;;;;;5020074;28;20307;-68
2022/02/02 03:30:44;;;;;;;28.77;4.90;;;6.60;99.90;;;;;;5016624;28;20108;-68
2022/02/02 03:57:55;;;;;;;27.30;4.65;;;6.50;99.90;;;;;;5021377;28;20606;-67
2022/02/02 04:05:53;;;;;;;27.25;4.97;;;6.50;99.90;;;;;;5022681;28;20072;-67
2022/02/02 04:08:28;;;;;;;30.80;5.28;;;6.50;99.90;;;;;;5018332;28;20370;-67
2022/02/02 04:10:55;;;;;;;24.35;4.65;;;6.40;99.90;;;;;;5020060;28;20080;-67
2022/02/02 04:38:21;;;;;;;19.40;2.80;;;6.30;99.90;;;;;;5018454;28;20411;-67
2022/02/02 04:52:08;;;;;;;19.08;2.92;;;6.30;99.90;;;;;;5025652;28;20099;-67
2022/02/02 04:54:37;;;;;;;17.67;3.42;;;6.30;99.90;;;;;;5022699;28;20045;-66
2022/02/02 05:11:02;;;;;;;21.92;3.20;;;6.20;99.90;;;;;;5018676;28;20038;-67
2022/02/02 05:43:24;;;;;;;21.50;4.32;;;6.20;99.90;;;;;;5021665;28;20053;-68
2022/02/02 05:48:54;;;;;;;22.73;3.90;;;6.20;99.90;;;;;;5021412;28;20053;-68
2022/02/02 05:51:49;;;;;;;24.88;3.70;;;6.20;99.90;;;;;;5016821;28;20054;-68
2022/02/02 05:54:15;;;;;;;25.73;3.97;;;6.10;99.90;;;;;;5003765;28;20034;-68
2022/02/02 05:56:46;;;;;;;24.08;3.72;;;6.10;99.90;;;;;;5020928;28;20065;-68
2022/02/02 05:59:12;;;;;;;21.52;3.63;;;6.10;99.90;;;;;;5022410;28;20427;-68
2022/02/02 06:01:44;;;;;;;21.88;3.20;;;6.10;99.90;;;;;;5020074;28;20074;-68
2022/02/02 06:04:13;;;;;;;17.73;3.58;;;6.10;99.90;;;;;;5021786;28;20175;-68
2022/02/02 06:06:41;;;;;;;24.17;3.95;;;6.10;99.90;;;;;;5019778;28;20123;-68
2022/02/02 06:09:07;;;;;;;23.48;4.03;;;6.10;99.90;;;;;;5020765;28;20077;-68
2022/02/02 06:11:34;;;;;;;22.42;3.78;;;6.10;99.90;;;;;;5021415;28;20926;-68
2022/02/02 06:14:00;;;;;;;22.17;3.40;;;6.10;99.90;;;;;;5019750;28;20178;-68
2022/02/02 06:16:28;;;;;;;29.88;4.38;;;6.00;99.90;;;;;;5024967;28;20046;-69
2022/02/02 06:19:00;;;;;;;20.00;3.58;;;6.00;99.90;;;;;;5016986;28;20046;-68
2022/02/02 06:21:31;;;;;;;24.63;4.07;;;6.10;99.90;;;;;;5020093;28;20511;-68
2022/02/02 06:24:10;;;;;;;19.98;3.78;;;6.00;99.90;;;;;;5016642;28;20061;-68
2022/02/02 06:26:39;;;;;;;18.30;3.90;;;6.00;99.90;;;;;;5029366;28;20180;-68
2022/02/02 06:29:08;;;;;;;23.15;3.75;;;6.00;99.90;;;;;;5001611;28;20084;-68
2022/02/02 06:31:36;;;;;;;20.20;3.30;;;6.00;99.90;;;;;;5017614;28;20046;-68
2022/02/02 06:34:05;;;;;;;15.60;3.42;;;6.00;99.90;;;;;;5021654;28;20042;-68
2022/02/02 06:36:32;;;;;;;16.52;3.05;;;6.00;99.90;;;;;;5021497;28;20034;-68
2022/02/02 06:38:58;;;;;;;19.08;3.67;;;6.00;99.90;;;;;;5020899;28;20183;-68
2022/02/02 06:41:26;;;;;;;17.02;2.90;;;5.90;99.90;;;;;;5018199;28;20041;-69
2022/02/02 06:43:56;;;;;;;19.17;3.50;;;5.90;99.90;;;;;;5019894;28;20046;-68
2022/02/02 06:46:30;;;;;;;21.95;3.78;;;5.90;99.90;;;;;;5019606;28;20481;-68
2022/02/02 06:48:55;;;;;;;27.42;4.53;;;5.80;99.90;;;;;;5019324;28;20050;-69
2022/02/02 06:51:32;;;;;;;24.25;3.85;;;5.80;99.90;;;;;;5021335;28;20509;-69
2022/02/02 06:54:08;;;;;;;28.52;3.83;;;5.80;99.90;;;;;;5020455;28;20041;-68
2022/02/02 07:02:12;;;;;;;18.65;3.65;;;5.80;99.90;;;;;;5016049;28;20064;-68
2022/02/02 07:08:22;;;;;;;19.58;3.08;;;5.80;99.90;;;;;;5019623;28;20089;-68
2022/02/02 07:27:31;;;;;;;27.05;3.88;;;5.80;99.90;;;;;;5021430;28;20042;-68
2022/02/02 07:32:33;;;;;;;21.75;4.07;;;6.00;99.90;;;;;;5022284;28;20554;-68
2022/02/02 07:35:13;;;;;;;25.27;4.70;;;6.10;99.90;;;;;;5025821;28;20136;-68
2022/02/02 07:38:06;;;;;;;20.45;3.72;;;6.10;99.90;;;;;;5024743;28;20502;-68
2022/02/02 07:40:34;;;;;;;24.13;4.20;;;6.10;99.90;;;;;;5025848;28;20484;-68
2022/02/02 07:43:03;;;;;;;26.02;3.70;;;6.10;99.90;;;;;;5017008;28;20058;-68
2022/02/02 07:45:31;;;;;;;28.55;4.25;;;6.20;99.90;;;;;;5017780;28;20125;-68
2022/02/02 07:48:05;;;;;;;23.52;3.65;;;6.20;99.90;;;;;;5021063;28;20057;-68
2022/02/02 07:50:35;;;;;;;20.77;3.50;;;6.20;99.90;;;;;;5024093;28;20104;-68
2022/02/02 07:53:11;;;;;;;26.60;4.47;;;6.10;99.90;;;;;;5022530;28;20052;-68
2022/02/02 07:55:41;;;;;;;25.55;4.68;;;6.10;99.90;;;;;;5007654;28;20050;-69
2022/02/02 07:58:17;;;;;;;26.13;4.57;;;6.20;99.90;;;;;;5019514;28;20049;-69
2022/02/02 08:00:43;;;;;;;25.95;4.18;;;6.20;99.90;;;;;;5020539;28;20524;-69
2022/02/02 08:03:11;;;;;;;26.45;4.55;;;6.20;99.90;;;;;;5020290;28;20088;-68
2022/02/02 08:05:48;;;;;;;26.25;4.50;;;6.10;99.90;;;;;;5025154;28;20037;-68
2022/02/02 08:10:41;;;;;;;29.90;4.30;;;6.20;99.90;;;;;;5021030;28;20045;-68
2022/02/02 08:13:20;;;;;;;22.95;3.58;;;6.20;99.90;;;;;;5023094;28;20033;-68
2022/02/02 08:15:55;;;;;;;21.27;3.97;;;6.20;99.90;;;;;;5013704;28;20507;-68
2022/02/02 08:18:20;;;;;;;27.60;4.18;;;6.30;99.90;;;;;;5016864;28;20491;-68
2022/02/02 08:20:47;;;;;;;26.38;3.97;;;6.30;99.90;;;;;;5018502;28;20054;-68
2022/02/02 08:23:13;;;;;;;25.00;4.38;;;6.30;99.90;;;;;;5022727;28;20064;-68
2022/02/02 08:25:41;;;;;;;23.35;3.22;;;6.30;99.90;;;;;;5016758;28;20049;-68
2022/02/02 08:28:08;;;;;;;24.15;3.15;;;6.40;99.90;;;;;;5021998;28;20045;-68
2022/02/02 08:30:33;;;;;;;21.00;3.90;;;6.30;99.90;;;;;;5015079;28;20060;-68
2022/02/02 08:33:01;;;;;;;25.02;3.83;;;6.30;99.90;;;;;;5023539;28;20456;-69
2022/02/02 08:35:39;;;;;;;20.05;3.90;;;6.40;99.90;;;;;;5021912;28;20539;-69
2022/02/02 08:40:36;;;;;;;22.40;4.18;;;6.50;99.90;;;;;;5019874;28;20049;-69
2022/02/02 08:43:10;;;;;;;18.60;3.20;;;6.60;99.90;;;;;;5033418;28;20407;-69
2022/02/02 08:45:38;;;;;;;17.17;3.37;;;6.80;99.90;;;;;;5020262;28;20050;-69
2022/02/02 08:48:08;;;;;;;22.75;3.63;;;7.30;99.90;;;;;;5025960;28;20445;-69
2022/02/02 09:00:54;;;;;;;20.85;3.72;;;10.20;99.90;;;;;;5016547;28;20049;-69
2022/02/02 09:06:04;;;;;;;23.42;4.03;;;10.70;99.90;;;;;;5015995;28;20096;-68
2022/02/02 09:08:31;;;;;;;18.85;3.50;;;10.80;99.90;;;;;;5018351;28;20077;-69
2022/02/02 09:25:21;;;;;;;21.85;4.03;;;12.10;98.70;;;;;;5025625;28;20041;-69
2022/02/02 09:35:38;;;;;;;22.38;4.22;;;13.00;96.30;;;;;;5022342;28;20447;-69
2022/02/02 09:38:04;;;;;;;18.15;3.38;;;12.60;93.80;;;;;;5020346;28;20116;-69
2022/02/02 09:43:17;;;;;;;22.83;3.65;;;12.30;94.20;;;;;;5016929;28;20076;-69
2022/02/02 09:45:52;;;;;;;18.38;3.80;;;12.60;94.80;;;;;;5020636;28;20053;-70
2022/02/02 09:48:32;;;;;;;19.75;3.80;;;13.00;93.80;;;;;;5021257;28;20552;-69
2022/02/02 09:51:05;;;;;;;19.05;3.67;;;13.10;92.10;;;;;;5019916;28;20048;-69
2022/02/02 09:53:37;;;;;;;15.27;3.10;;;13.00;91.80;;;;;;5018257;28;20498;-69
2022/02/02 10:15:18;;;;;;;14.35;2.97;;;13.70;85.70;;;;;;5022583;28;20073;-69
2022/02/02 10:17:45;;;;;;;15.48;3.38;;;13.30;85.40;;;;;;5013503;28;20089;-69
2022/02/02 10:20:20;;;;;;;19.45;3.13;;;13.10;86.90;;;;;;5022296;28;20050;-69
2022/02/02 10:22:47;;;;;;;15.25;2.50;;;13.80;85.60;;;;;;5001224;28;21100;-69
2022/02/02 10:25:37;;;;;;;13.90;2.60;;;13.90;83.50;;;;;;5026009;28;20057;-69
2022/02/02 10:28:20;;;;;;;13.68;2.85;;;13.80;81.80;;;;;;5039993;28;20065;-70
2022/02/02 10:30:48;;;;;;;11.95;2.50;;;13.90;83.70;;;;;;5022923;28;20041;-70
2022/02/02 10:33:23;;;;;;;15.50;3.10;;;13.90;84.50;;;;;;5024083;28;20149;-70
2022/02/02 10:35:51;;;;;;;13.63;2.95;;;13.90;83.30;;;;;;5017686;28;20041;-70
2022/02/02 10:38:25;;;;;;;17.50;2.70;;;14.30;82.70;;;;;;5022909;28;20129;-70
2022/02/02 10:41:03;;;;;;;;;;;13.90;80.60;;;;;;5024454;28;20033;-70
2022/02/02 10:43:40;;;;;;;15.38;3.00;;;13.60;79.60;;;;;;5025246;28;19923;-70
2022/02/02 10:46:12;;;;;;;11.60;2.63;;;13.60;82.60;;;;;;5024576;28;20087;-70
2022/02/02 10:48:52;;;;;;;10.55;2.85;;;12.80;82.50;;;;;;5024518;28;20465;-70
2022/02/02 10:51:34;;;;;;;14.13;2.47;;;11.90;85.70;;;;;;5023984;28;20046;-70
2022/02/02 10:56:38;;;;;;;13.23;2.08;;;10.30;90.20;;;;;;5022809;28;20108;-70
2022/02/02 11:01:45;;;;;;;16.80;3.25;;;9.70;91.30;;;;;;5023568;28;20037;-70
2022/02/02 11:06:55;;;;;;;16.15;2.83;;;9.60;92.40;;;;;;5020484;28;20105;-70
2022/02/02 11:09:21;;;;;;;17.42;2.83;;;9.50;92.80;;;;;;5024065;28;20121;-70
2022/02/02 11:11:52;;;;;;;17.67;2.90;;;9.50;93.00;;;;;;5024355;28;20033;-70
2022/02/02 11:14:24;;;;;;;16.00;2.38;;;9.50;93.50;;;;;;5025455;28;20042;-70
2022/02/02 11:16:57;;;;;;;10.80;1.90;;;9.70;93.70;;;;;;5022784;28;20049;-70
2022/02/02 11:19:27;;;;;;;14.88;2.83;;;9.70;92.60;;;;;;5023539;28;20049;-70
2022/02/02 11:21:53;;;;;;;14.10;2.55;;;9.70;92.90;;;;;;5019948;28;20064;-70
2022/02/02 11:24:20;;;;;;;15.43;2.22;;;9.80;93.30;;;;;;5007047;28;20137;-70
2022/02/02 11:26:47;;;;;;;13.45;2.13;;;9.80;93.00;;;;;;5022093;28;20460;-70
2022/02/02 11:29:38;;;;;;;12.55;2.38;;;9.90;93.60;;;;;;5020133;28;20132;-70
2022/02/02 11:32:09;;;;;;;14.13;2.10;;;9.90;92.80;;;;;;5016242;28;20072;-70
2022/02/02 11:34:35;;;;;;;15.98;2.63;;;9.90;93.20;;;;;;5039748;28;20434;-70
2022/02/02 11:37:03;;;;;;;15.90;2.20;;;9.90;93.10;;;;;;5024033;28;20037;-70
2022/02/02 11:40:01;;;;;;;14.95;1.90;;;9.70;93.10;;;;;;5024055;28;20077;-70
2022/02/02 11:42:51;;;;;;;13.90;2.28;;;9.70;93.20;;;;;;5018417;28;20053;-69
2022/02/02 11:46:00;;;;;;;14.85;2.75;;;9.70;93.70;;;;;;5017894;28;20058;-69
2022/02/02 11:49:07;;;;;;;12.82;2.22;;;9.60;93.50;;;;;;4989042;28;20061;-71
2022/02/02 11:51:50;;;;;;;15.00;2.47;;;9.70;94.30;;;;;;4990465;28;20537;-71
2022/02/02 11:54:32;;;;;;;15.40;2.00;;;9.70;94.30;;;;;;5006621;28;20371;-70
2022/02/02 11:56:58;;;;;;;14.45;2.20;;;9.70;93.80;;;;;;5016523;28;20057;-70
2022/02/02 12:02:49;;;;;;;13.88;2.50;;;9.70;94.10;;;;;;5017635;28;20478;-69
2022/02/02 12:05:26;;;;;;;11.32;2.10;;;9.70;93.70;;;;;;5040001;28;20512;-70
2022/02/02 12:08:27;;;;;;;11.60;2.05;;;9.70;93.80;;;;;;5020527;28;20108;-70
2022/02/02 12:49:09;;;;;;;8.10;1.25;;;9.10;94.50;;;;;;5015568;28;20049;-70
2022/02/02 12:57:06;;;;;;;;;;;8.80;95.00;;;;;;5020495;28;20111;-71
2022/02/02 13:02:17;;;;;;;14.95;2.13;;;8.80;95.50;;;;;;5022662;28;20132;-71
2022/02/02 13:04:53;;;;;;;14.02;2.22;;;9.00;95.50;;;;;;5016441;28;20100;-71
2022/02/02 13:07:20;;;;;;;12.57;2.45;;;9.20;95.30;;;;;;5013092;28;20117;-70
2022/02/02 13:09:49;;;;;;;15.68;2.55;;;9.30;94.50;;;;;;5027391;28;20401;-70
2022/02/02 13:12:20;;;;;;;9.98;1.73;;;9.30;94.50;;;;;;5017556;28;20503;-70
2022/02/02 13:18:02;;;;;;;11.90;1.95;;;9.40;94.70;;;;;;5023188;28;20362;-70
2022/02/02 13:23:15;;;;;;;12.68;2.13;;;9.40;93.90;;;;;;5020473;28;20079;-70
2022/02/02 13:25:43;;;;;;;12.52;2.17;;;9.40;94.00;;;;;;5022915;28;20514;-70
2022/02/02 13:28:10;;;;;;;14.40;2.47;;;9.40;94.20;;;;;;5018875;28;20556;-70
2022/02/02 13:30:45;;;;;;;12.48;1.88;;;9.40;93.90;;;;;;5023656;28;20068;-70
2022/02/02 13:33:25;;;;;;;16.75;2.67;;;9.40;94.40;;;;;;5024037;28;20504;-70
2022/02/02 13:36:21;;;;;;;14.60;2.47;;;9.50;94.30;;;;;;5016013;28;20052;-71
2022/02/02 14:33:21;;;;;;;15.77;2.50;;;9.60;93.90;;;;;;5021066;28;20049;-71
2022/02/02 14:35:48;;;;;;;14.43;2.63;;;9.60;93.60;;;;;;5019329;28;20132;-71
2022/02/02 14:38:16;;;;;;;19.88;3.92;;;9.60;93.70;;;;;;5025978;28;20048;-73
2022/02/02 14:40:56;;;;;;;12.18;2.45;;;9.70;93.70;;;;;;5022422;28;20490;-72
2022/02/02 14:43:32;;;;;;;12.50;2.20;;;9.70;93.50;;;;;;5019268;28;20045;-71
2022/02/02 14:46:00;;;;;;;14.60;2.67;;;9.60;93.10;;;;;;5016394;28;20041;-71
2022/02/02 14:48:37;;;;;;;16.63;3.03;;;9.60;93.30;;;;;;5016888;28;20088;-71
2022/02/02 14:53:50;;;;;;;13.57;2.63;;;9.50;93.10;;;;;;5020055;28;20047;-70
2022/02/02 15:29:03;;;;;;;19.60;3.28;;;8.40;95.70;;;;;;5016921;28;20491;-68
2022/02/02 15:31:29;;;;;;;;;;;8.40;96.10;;;;;;5022097;28;20126;-68
2022/02/02 15:33:57;;;;;;;16.33;2.88;;;8.30;96.80;;;;;;5031083;28;20007;-68
2022/02/02 15:37:27;;;;;;;17.70;2.60;;;8.20;96.20;;;;;;5023005;28;20067;-68
2022/02/02 15:39:19;;;;;;;17.38;2.95;;;8.20;96.10;;;;;;5011858;28;20049;-68
2022/02/02 16:03:07;;;;;;;13.45;2.13;;;7.50;95.90;;;;;;5018259;28;20481;-67
2022/02/02 16:08:07;;;;;;;10.18;1.80;;;7.30;96.20;;;;;;5019638;28;20037;-67
2022/02/02 16:10:47;;;;;;;15.15;2.35;;;7.30;96.30;;;;;;5022013;28;20675;-68
2022/02/02 16:37:41;;;;;;;11.85;1.73;;;6.30;97.50;;;;;;5021070;28;20058;-70
2022/02/02 16:40:09;;;;;;;17.75;2.28;;;6.20;97.60;;;;;;5017964;28;20133;-70
2022/02/02 16:43:19;;;;;;;17.27;2.47;;;6.20;97.90;;;;;;5018112;28;20505;-70
2022/02/02 16:45:27;;;;;;;17.60;2.80;;;6.10;98.00;;;;;;5019654;28;20163;-71
2022/02/02 16:47:53;;;;;;;15.90;3.28;;;6.10;98.70;;;;;;5005505;28;20064;-71
2022/02/02 16:50:22;;;;;;;21.48;3.00;;;6.10;98.70;;;;;;5014858;28;20192;-71
2022/02/02 16:52:52;;;;;;;21.17;3.15;;;6.10;98.60;;;;;;5016648;28;20076;-70
2022/02/02 16:56:10;;;;;;;24.15;4.15;;;6.00;98.70;;;;;;5011385;28;20042;-70
2022/02/02 17:33:03;;;;;;;17.83;3.70;;;5.20;99.80;;;;;;5012306;28;20038;-70
2022/02/02 17:35:50;;;;;;;17.17;3.10;;;5.10;99.90;;;;;;5021077;28;20041;-70
2022/02/02 17:38:22;;;;;;;22.35;3.83;;;5.00;99.90;;;;;;5014748;28;20373;-70
2022/02/02 18:20:48;;;;;;;21.80;5.57;;;4.30;99.90;;;;;;5020437;28;20053;-70
2022/02/02 18:23:44;;;;;;;18.98;5.32;;;4.30;99.90;;;;;;5018736;28;20129;-70
2022/02/02 18:26:15;;;;;;;25.67;5.65;;;4.30;99.90;;;;;;5019110;28;20044;-70
2022/02/02 18:44:50;;;;;;;18.73;4.63;;;4.30;99.90;;;;;;5019771;28;20137;-70
2022/02/02 18:47:47;;;;;;;25.63;5.63;;;4.20;99.90;;;;;;5020661;28;20834;-70
2022/02/02 18:53:17;;;;;;;18.60;4.35;;;4.20;99.90;;;;;;5022644;28;20478;-70
2022/02/02 18:55:45;;;;;;;22.20;5.15;;;4.20;99.90;;;;;;5020308;28;20037;-70
2022/02/02 19:01:09;;;;;;;19.63;4.20;;;4.20;99.90;;;;;;5016753;28;20114;-69
2022/02/02 19:56:12;;;;;;;23.17;5.47;;;4.50;99.90;;;;;;5019547;28;20063;-70
2022/02/02 20:12:14;;;;;;;24.17;5.57;;;4.90;99.90;;;;;;5021110;28;20089;-69
2022/02/02 20:14:41;;;;;;;22.35;5.07;;;4.90;99.90;;;;;;5019738;28;20072;-69
2022/02/02 20:17:10;;;;;;;18.88;5.53;;;5.10;99.90;;;;;;5017242;28;20041;-70
2022/02/02 20:19:39;;;;;;;21.00;5.78;;;5.10;99.90;;;;;;5018132;28;20442;-69
2022/02/02 20:22:05;;;;;;;26.90;5.68;;;5.20;99.90;;;;;;5022362;28;20510;-69
2022/02/02 20:24:38;;;;;;;24.23;6.03;;;5.20;99.90;;;;;;5015456;28;20046;-69
2022/02/02 20:27:05;;;;;;;22.55;5.97;;;5.20;99.90;;;;;;5022653;28;20044;-69
2022/02/02 20:29:32;;;;;;;18.33;5.95;;;5.40;99.90;;;;;;5019222;28;20049;-69
2022/02/02 20:31:57;;;;;;;18.20;5.38;;;5.40;99.90;;;;;;5001267;28;20046;-70
2022/02/02 20:34:23;;;;;;;24.27;4.93;;;5.40;99.90;;;;;;5019380;28;20048;-69
2022/02/02 20:36:49;;;;;;;21.80;5.15;;;5.50;99.90;;;;;;5015010;28;20041;-69
2022/02/02 20:42:11;;;;;;;20.92;6.13;;;5.70;99.90;;;;;;5016684;28;20709;-69
2022/02/02 20:45:06;;;;;;;18.77;4.32;;;5.70;99.90;;;;;;5015345;28;20060;-69
2022/02/02 21:06:31;;;;;;;26.92;6.10;;;6.10;99.90;;;;;;5018800;28;20783;-69
2022/02/02 21:09:18;;;;;;;27.38;5.70;;;6.10;99.90;;;;;;5016467;28;20037;-69
2022/02/02 21:14:14;;;;;;;37.95;7.47;;;6.10;99.90;;;;;;5019022;28;20506;-69
2022/02/02 21:16:44;;;;;;;28.17;6.65;;;6.20;99.90;;;;;;5017164;28;20168;-69
2022/02/02 21:19:13;;;;;;;34.45;7.95;;;6.20;99.90;;;;;;5019535;28;20029;-69
2022/02/02 21:21:49;;;;;;;41.00;9.02;;;6.20;99.90;;;;;;5020110;28;20052;-69
2022/02/02 21:29:16;;;;;;;29.48;9.63;;;6.20;99.90;;;;;;5018212;28;20050;-69
2022/02/02 21:31:42;;;;;;;31.45;8.77;;;6.30;99.90;;;;;;5019737;28;20417;-69
2022/02/02 21:34:08;;;;;;;30.60;8.88;;;6.30;99.90;;;;;;5018700;28;20041;-69
2022/02/02 21:36:34;;;;;;;34.88;9.38;;;6.30;99.90;;;;;;5018687;28;20041;-69
2022/02/02 21:41:33;;;;;;;48.75;10.88;;;6.20;99.90;;;;;;5018581;28;20071;-69
2022/02/02 21:43:59;;;;;;;38.85;10.48;;;6.30;99.90;;;;;;5018512;28;20148;-69
2022/02/02 21:46:25;;;;;;;32.15;10.95;;;6.40;99.90;;;;;;5016719;28;20449;-69
2022/02/02 21:48:53;;;;;;;36.92;11.60;;;6.40;99.90;;;;;;5020106;28;20559;-69
2022/02/02 21:51:31;;;;;;;37.20;10.95;;;6.40;99.90;;;;;;5018783;28;20425;-69
2022/02/02 21:53:56;;;;;;;34.92;11.43;;;6.40;99.90;;;;;;5018706;28;20393;-69
2022/02/02 21:56:23;;;;;;;41.97;12.73;;;6.40;99.90;;;;;;5020146;28;20037;-69
2022/02/02 21:58:49;;;;;;;35.85;13.27;;;6.50;99.90;;;;;;5017111;28;20057;-69
2022/02/02 22:01:15;;;;;;;34.22;13.32;;;6.50;99.90;;;;;;5016789;28;20126;-69
2022/02/02 22:03:41;;;;;;;38.15;13.65;;;6.50;99.90;;;;;;5019515;28;20046;-69
2022/02/02 22:06:07;;;;;;;40.30;12.57;;;6.50;99.90;;;;;;5019120;28;20413;-70
2022/02/02 22:08:32;;;;;;;32.40;12.55;;;6.60;99.90;;;;;;5018195;28;20561;-69
2022/02/02 22:10:58;;;;;;;36.03;13.07;;;6.70;99.90;;;;;;5019671;28;20375;-69
2022/02/02 22:13:34;;;;;;;44.30;15.27;;;6.70;99.90;;;;;;5018889;28;20128;-69
2022/02/02 22:16:05;;;;;;;48.08;14.80;;;6.70;99.90;;;;;;5016776;28;20487;-69
2022/02/02 22:18:31;;;;;;;45.58;15.70;;;6.70;99.90;;;;;;5022506;28;20041;-69
2022/02/02 22:20:57;;;;;;;42.80;16.33;;;6.80;99.90;;;;;;5023784;28;20386;-69
2022/02/02 22:23:24;;;;;;;37.78;16.83;;;6.80;99.90;;;;;;5006493;28;20060;-69
2022/02/02 22:25:50;;;;;;;43.47;18.75;;;6.80;99.90;;;;;;5006374;28;20446;-69
2022/02/02 22:28:15;;;;;;;40.72;18.40;;;6.90;99.90;;;;;;5023418;28;20051;-69
2022/02/02 22:30:41;;;;;;;46.38;19.42;;;6.90;99.90;;;;;;5019878;28;20469;-69
2022/02/02 22:33:07;;;;;;;41.53;18.05;;;6.90;99.90;;;;;;5022158;28;20487;-69
2022/02/02 22:35:32;;;;;;;36.17;17.88;;;7.00;99.90;;;;;;5019833;28;20171;-69
2022/02/02 22:37:58;;;;;;;39.72;18.23;;;7.00;99.90;;;;;;5021171;28;20046;-68
2022/02/02 22:40:26;;;;;;;32.72;16.33;;;7.10;99.90;;;;;;5023139;28;20075;-68
2022/02/02 22:42:52;;;;;;;43.85;18.92;;;7.10;99.90;;;;;;5021161;28;20461;-68
2022/02/02 22:45:17;;;;;;;31.27;16.77;;;7.10;99.90;;;;;;5020388;28;20178;-68
2022/02/02 22:47:44;;;;;;;38.95;18.63;;;7.20;99.90;;;;;;5020528;28;20636;-68
2022/02/02 22:50:11;;;;;;;35.75;17.83;;;7.20;99.90;;;;;;5025038;28;20059;-68
2022/02/02 22:52:39;;;;;;;39.38;19.80;;;7.20;99.90;;;;;;5021896;28;20067;-68
2022/02/02 22:55:06;;;;;;;37.45;19.33;;;7.30;99.90;;;;;;5017581;28;20064;-68
2022/02/02 22:57:32;;;;;;;44.10;21.33;;;7.30;99.90;;;;;;5023898;28;20045;-68
2022/02/02 23:00:01;;;;;;;47.88;23.77;;;7.30;99.90;;;;;;5020675;28;20049;-68
2022/02/02 23:05:11;;;;;;;59.33;27.00;;;7.40;99.90;;;;;;5024538;28;20048;-68
2022/02/02 23:07:36;;;;;;;55.63;27.13;;;7.30;99.90;;;;;;5024893;28;20049;-68
2022/02/02 23:10:04;;;;;;;55.92;29.10;;;7.40;99.90;;;;;;5018818;28;20040;-68
2022/02/02 23:12:29;;;;;;;61.15;29.05;;;7.50;99.90;;;;;;5022290;28;20041;-68
2022/02/02 23:14:58;;;;;;;56.15;29.30;;;7.50;99.90;;;;;;5022637;28;20536;-68
2022/02/02 23:17:26;;;;;;;68.95;30.48;;;7.50;99.90;;;;;;5019939;28;20411;-68
2022/02/02 23:19:52;;;;;;;61.92;29.63;;;7.50;99.90;;;;;;5021170;28;20045;-68
2022/02/02 23:22:22;;;;;;;84.30;32.83;;;7.60;99.90;;;;;;5023241;28;20076;-68
2022/02/02 23:24:52;;;;;;;74.20;32.92;;;7.60;99.90;;;;;;5021289;28;20425;-68
2022/02/02 23:27:18;;;;;;;71.97;32.47;;;7.60;99.90;;;;;;5020773;28;20103;-68
2022/02/02 23:29:48;;;;;;;64.50;32.67;;;7.60;99.90;;;;;;5024412;28;20045;-69
2022/02/02 23:32:18;;;;;;;78.22;35.30;;;7.70;99.90;;;;;;5022660;28;20531;-69
2022/02/02 23:34:44;;;;;;;70.28;32.63;;;7.70;99.90;;;;;;5002596;28;20038;-69
2022/02/02 23:37:10;;;;;;;70.00;34.08;;;7.70;99.90;;;;;;5019669;28;20045;-69
2022/02/02 23:39:40;;;;;;;68.53;33.17;;;7.80;99.90;;;;;;5021776;28;20041;-69
2022/02/02 23:42:23;;;;;;;63.00;31.60;;;7.80;99.90;;;;;;5020878;28;20033;-69
2022/02/02 23:44:51;;;;;;;68.25;32.47;;;7.80;99.90;;;;;;5020923;28;20042;-69
2022/02/02 23:47:20;;;;;;;77.40;34.35;;;7.90;99.90;;;;;;5021828;28;20038;-69
2022/02/02 23:49:54;;;;;;;69.72;33.33;;;7.90;99.90;;;;;;5019341;28;20134;-69
2022/02/02 23:52:31;;;;;;;70.60;32.63;;;7.90;99.90;;;;;;5019302;28;20026;-69
2022/02/02 23:54:58;;;;;;;75.45;33.05;;;8.00;99.90;;;;;;5022620;28;20394;-69
